sensor_id;sensor_type;location;lat;lon;timestamp;pressure;altitude;pressure_sealevel;temperature;humidity
13015;BME280;6573;57.696;11.950;2023-05-29T00:01:56;101915.13;;;15.51;100.00
13015;BME280;6573;57.696;11.950;2023-05-29T00:04:25;101916.88;;;15.43;100.00
13015;BME280;6573;57.696;11.950;2023-05-29T00:06:53;101916.94;;;15.48;100.00
13015;BME280;6573;57.696;11.950;2023-05-29T00:09:23;101913.38;;;15.38;100.00
13015;BME280;6573;57.696;11.950;2023-05-29T00:11:51;101911.66;;;15.34;100.00
13015;BME280;6573;57.696;11.950;2023-05-29T00:14:20;101904.56;;;15.39;100.00
13015;BME280;6573;57.696;11.950;2023-05-29T00:16:50;101914.31;;;15.30;100.00
13015;BME280;6573;57.696;11.950;2023-05-29T00:19:19;101921.41;;;15.29;100.00
13015;BME280;6573;57.696;11.950;2023-05-29T00:21:48;101916.97;;;15.28;100.00
13015;BME280;6573;57.696;11.950;2023-05-29T00:24:16;101915.19;;;15.33;100.00
13015;BME280;6573;57.696;11.950;2023-05-29T00:26:45;101909.88;;;15.33;100.00
13015;BME280;6573;57.696;11.950;2023-05-29T00:29:14;101916.09;;;15.32;100.00
13015;BME280;6573;57.696;11.950;2023-05-29T00:31:43;101924.06;;;15.26;100.00
13015;BME280;6573;57.696;11.950;2023-05-29T00:34:11;101927.63;;;15.16;100.00
13015;BME280;6573;57.696;11.950;2023-05-29T00:36:40;101932.97;;;15.10;100.00
13015;BME280;6573;57.696;11.950;2023-05-29T00:39:08;101942.69;;;15.10;100.00
13015;BME280;6573;57.696;11.950;2023-05-29T00:41:37;101936.50;;;15.09;100.00
13015;BME280;6573;57.696;11.950;2023-05-29T00:44:07;101935.59;;;15.12;100.00
13015;BME280;6573;57.696;11.950;2023-05-29T00:46:35;101940.00;;;15.17;100.00
13015;BME280;6573;57.696;11.950;2023-05-29T00:49:04;101941.78;;;15.09;100.00
13015;BME280;6573;57.696;11.950;2023-05-29T00:51:33;101944.47;;;15.11;100.00
13015;BME280;6573;57.696;11.950;2023-05-29T00:54:04;101943.50;;;15.25;100.00
13015;BME280;6573;57.696;11.950;2023-05-29T00:56:34;101940.00;;;15.14;100.00
13015;BME280;6573;57.696;11.950;2023-05-29T00:59:03;101945.25;;;15.23;100.00
13015;BME280;6573;57.696;11.950;2023-05-29T01:01:33;101949.78;;;15.02;100.00
13015;BME280;6573;57.696;11.950;2023-05-29T01:04:03;101949.81;;;14.93;100.00
13015;BME280;6573;57.696;11.950;2023-05-29T01:06:35;101952.47;;;14.88;100.00
13015;BME280;6573;57.696;11.950;2023-05-29T01:09:03;101943.66;;;14.74;100.00
13015;BME280;6573;57.696;11.950;2023-05-29T01:11:39;101959.53;;;14.77;100.00
13015;BME280;6573;57.696;11.950;2023-05-29T01:14:15;101962.19;;;14.83;100.00
13015;BME280;6573;57.696;11.950;2023-05-29T01:16:50;101959.53;;;14.77;100.00
13015;BME280;6573;57.696;11.950;2023-05-29T01:19:30;101961.31;;;14.75;100.00
13015;BME280;6573;57.696;11.950;2023-05-29T01:22:11;101953.38;;;14.73;100.00
13015;BME280;6573;57.696;11.950;2023-05-29T01:24:49;101959.56;;;14.71;100.00
13015;BME280;6573;57.696;11.950;2023-05-29T01:27:21;101956.03;;;14.63;100.00
13015;BME280;6573;57.696;11.950;2023-05-29T01:29:55;101961.31;;;14.69;100.00
13015;BME280;6573;57.696;11.950;2023-05-29T01:32:24;101968.41;;;14.58;100.00
13015;BME280;6573;57.696;11.950;2023-05-29T01:34:54;101968.41;;;14.55;100.00
13015;BME280;6573;57.696;11.950;2023-05-29T01:37:22;101970.16;;;14.59;100.00
13015;BME280;6573;57.696;11.950;2023-05-29T01:39:50;101963.09;;;14.67;100.00
13015;BME280;6573;57.696;11.950;2023-05-29T01:42:20;101970.13;;;14.77;100.00
13015;BME280;6573;57.696;11.950;2023-05-29T01:44:49;101968.34;;;14.79;100.00
13015;BME280;6573;57.696;11.950;2023-05-29T01:47:18;101970.16;;;14.78;100.00
13015;BME280;6573;57.696;11.950;2023-05-29T01:49:47;101970.13;;;14.80;100.00
13015;BME280;6573;57.696;11.950;2023-05-29T01:52:17;101971.91;;;14.69;100.00
13015;BME280;6573;57.696;11.950;2023-05-29T01:54:46;101968.41;;;14.68;100.00
13015;BME280;6573;57.696;11.950;2023-05-29T01:57:14;101957.81;;;14.55;100.00
13015;BME280;6573;57.696;11.950;2023-05-29T01:59:44;101965.75;;;14.43;100.00
13015;BME280;6573;57.696;11.950;2023-05-29T02:02:13;101981.66;;;14.38;100.00
13015;BME280;6573;57.696;11.950;2023-05-29T02:04:41;101978.13;;;14.44;100.00
13015;BME280;6573;57.696;11.950;2023-05-29T02:07:10;101976.34;;;14.43;100.00
13015;BME280;6573;57.696;11.950;2023-05-29T02:09:39;101978.13;;;14.36;100.00
13015;BME280;6573;57.696;11.950;2023-05-29T02:12:07;101974.59;;;14.39;100.00
13015;BME280;6573;57.696;11.950;2023-05-29T02:14:36;101972.84;;;14.44;100.00
13015;BME280;6573;57.696;11.950;2023-05-29T02:17:05;101980.72;;;14.25;100.00
13015;BME280;6573;57.696;11.950;2023-05-29T02:19:34;101977.22;;;14.42;100.00
13015;BME280;6573;57.696;11.950;2023-05-29T02:22:03;101980.75;;;14.50;100.00
13015;BME280;6573;57.696;11.950;2023-05-29T02:24:32;101982.53;;;14.36;100.00
13015;BME280;6573;57.696;11.950;2023-05-29T02:27:01;101989.53;;;14.06;100.00
13015;BME280;6573;57.696;11.950;2023-05-29T02:29:30;101984.19;;;13.94;100.00
13015;BME280;6573;57.696;11.950;2023-05-29T02:31:58;101984.19;;;13.94;100.00
13015;BME280;6573;57.696;11.950;2023-05-29T02:34:28;101983.31;;;13.97;100.00
13015;BME280;6573;57.696;11.950;2023-05-29T02:36:57;101984.22;;;14.00;100.00
13015;BME280;6573;57.696;11.950;2023-05-29T02:39:25;101994.84;;;14.18;100.00
13015;BME280;6573;57.696;11.950;2023-05-29T02:41:54;101986.03;;;14.25;100.00
13015;BME280;6573;57.696;11.950;2023-05-29T02:44:22;101993.94;;;14.27;100.00
13015;BME280;6573;57.696;11.950;2023-05-29T02:46:51;101989.53;;;14.06;100.00
13015;BME280;6573;57.696;11.950;2023-05-29T02:49:21;101993.03;;;13.93;100.00
13015;BME280;6573;57.696;11.950;2023-05-29T02:51:51;101994.75;;;13.85;100.00
13015;BME280;6573;57.696;11.950;2023-05-29T02:54:23;102000.03;;;13.73;100.00
13015;BME280;6573;57.696;11.950;2023-05-29T02:56:52;101998.25;;;13.75;100.00
13015;BME280;6573;57.696;11.950;2023-05-29T02:59:20;101993.88;;;13.76;100.00
13015;BME280;6573;57.696;11.950;2023-05-29T03:01:49;102002.66;;;13.69;100.00
13015;BME280;6573;57.696;11.950;2023-05-29T03:04:18;101997.38;;;13.75;100.00
13015;BME280;6573;57.696;11.950;2023-05-29T03:06:47;101996.50;;;13.74;100.00
13015;BME280;6573;57.696;11.950;2023-05-29T03:09:17;101998.31;;;13.84;100.00
13015;BME280;6573;57.696;11.950;2023-05-29T03:11:45;101996.50;;;13.80;100.00
13015;BME280;6573;57.696;11.950;2023-05-29T03:14:14;101994.78;;;13.79;100.00
13015;BME280;6573;57.696;11.950;2023-05-29T03:16:43;101996.50;;;13.77;100.00
13015;BME280;6573;57.696;11.950;2023-05-29T03:19:11;102000.00;;;13.70;100.00
13015;BME280;6573;57.696;11.950;2023-05-29T03:21:39;102007.06;;;13.68;100.00
13015;BME280;6573;57.696;11.950;2023-05-29T03:24:08;102008.84;;;13.69;100.00
13015;BME280;6573;57.696;11.950;2023-05-29T03:26:38;102003.56;;;13.78;100.00
13015;BME280;6573;57.696;11.950;2023-05-29T03:29:06;102008.84;;;13.69;100.00
13015;BME280;6573;57.696;11.950;2023-05-29T03:31:35;102014.13;;;13.69;100.00
13015;BME280;6573;57.696;11.950;2023-05-29T03:34:03;102016.81;;;13.77;100.00
13015;BME280;6573;57.696;11.950;2023-05-29T03:36:32;102017.69;;;13.80;100.00
13015;BME280;6573;57.696;11.950;2023-05-29T03:39:03;102012.41;;;13.83;100.00
13015;BME280;6573;57.696;11.950;2023-05-29T03:41:31;102008.84;;;13.78;100.00
13015;BME280;6573;57.696;11.950;2023-05-29T03:44:01;102016.78;;;13.75;100.00
13015;BME280;6573;57.696;11.950;2023-05-29T03:46:31;102017.69;;;13.74;100.00
13015;BME280;6573;57.696;11.950;2023-05-29T03:48:59;102015.88;;;13.64;100.00
13015;BME280;6573;57.696;11.950;2023-05-29T03:51:30;102015.00;;;13.68;100.00
13015;BME280;6573;57.696;11.950;2023-05-29T03:53:59;102012.34;;;13.67;100.00
13015;BME280;6573;57.696;11.950;2023-05-29T03:56:27;102008.84;;;13.78;100.00
13015;BME280;6573;57.696;11.950;2023-05-29T03:58:57;102005.28;;;13.70;100.00
13015;BME280;6573;57.696;11.950;2023-05-29T04:01:27;102020.28;;;13.73;100.00
13015;BME280;6573;57.696;11.950;2023-05-29T04:03:55;102028.25;;;13.80;100.00
13015;BME280;6573;57.696;11.950;2023-05-29T04:06:24;102019.41;;;13.69;100.00
13015;BME280;6573;57.696;11.950;2023-05-29T04:08:52;102003.50;;;13.63;100.00
13015;BME280;6573;57.696;11.950;2023-05-29T04:11:21;102023.00;;;13.92;100.00
13015;BME280;6573;57.696;11.950;2023-05-29T04:13:49;102007.09;;;13.74;100.00
13015;BME280;6573;57.696;11.950;2023-05-29T04:16:18;102024.72;;;13.69;100.00
13015;BME280;6573;57.696;11.950;2023-05-29T04:18:48;102030.03;;;13.81;100.00
13015;BME280;6573;57.696;11.950;2023-05-29T04:21:16;102008.00;;;13.84;100.00
13015;BME280;6573;57.696;11.950;2023-05-29T04:23:45;102026.56;;;14.00;100.00
13015;BME280;6573;57.696;11.950;2023-05-29T04:26:13;102024.78;;;13.93;100.00
13015;BME280;6573;57.696;11.950;2023-05-29T04:28:41;102000.03;;;13.82;100.00
13015;BME280;6573;57.696;11.950;2023-05-29T04:31:10;102045.09;;;14.06;100.00
13015;BME280;6573;57.696;11.950;2023-05-29T04:33:41;102044.19;;;14.04;100.00
13015;BME280;6573;57.696;11.950;2023-05-29T04:36:13;102038.91;;;13.98;100.00
13015;BME280;6573;57.696;11.950;2023-05-29T04:38:43;102064.47;;;14.02;100.00
13015;BME280;6573;57.696;11.950;2023-05-29T04:41:11;102056.59;;;14.11;100.00
13015;BME280;6573;57.696;11.950;2023-05-29T04:43:40;102034.47;;;14.02;100.00
13015;BME280;6573;57.696;11.950;2023-05-29T04:46:08;102056.50;;;13.87;100.00
13015;BME280;6573;57.696;11.950;2023-05-29T04:48:39;102063.56;;;13.91;100.00
13015;BME280;6573;57.696;11.950;2023-05-29T04:51:08;102062.69;;;13.91;100.00
13015;BME280;6573;57.696;11.950;2023-05-29T04:53:40;102063.56;;;13.94;100.00
13015;BME280;6573;57.696;11.950;2023-05-29T04:56:09;102067.16;;;14.14;100.00
13015;BME280;6573;57.696;11.950;2023-05-29T04:58:37;102073.34;;;14.18;100.00
13015;BME280;6573;57.696;11.950;2023-05-29T05:01:05;102075.94;;;13.98;100.00
13015;BME280;6573;57.696;11.950;2023-05-29T05:03:35;102075.06;;;14.01;100.00
13015;BME280;6573;57.696;11.950;2023-05-29T05:06:03;102076.84;;;14.08;100.00
13015;BME280;6573;57.696;11.950;2023-05-29T05:08:34;102083.03;;;14.08;100.00
13015;BME280;6573;57.696;11.950;2023-05-29T05:11:04;102077.78;;;14.23;100.00
13015;BME280;6573;57.696;11.950;2023-05-29T05:13:33;102084.75;;;13.97;100.00
13015;BME280;6573;57.696;11.950;2023-05-29T05:16:01;102083.00;;;14.05;100.00
13015;BME280;6573;57.696;11.950;2023-05-29T05:18:30;102080.47;;;14.33;100.00
13015;BME280;6573;57.696;11.950;2023-05-29T05:20:58;102080.47;;;14.36;100.00
13015;BME280;6573;57.696;11.950;2023-05-29T05:23:27;102084.91;;;14.43;100.00
13015;BME280;6573;57.696;11.950;2023-05-29T05:25:55;102077.72;;;13.96;100.00
13015;BME280;6573;57.696;11.950;2023-05-29T05:28:25;102069.81;;;14.13;100.00
13015;BME280;6573;57.696;11.950;2023-05-29T05:30:54;102078.66;;;14.30;100.00
13015;BME280;6573;57.696;11.950;2023-05-29T05:33:22;102071.69;;;14.55;100.00
13015;BME280;6573;57.696;11.950;2023-05-29T05:35:50;102074.31;;;14.55;100.00
13015;BME280;6573;57.696;11.950;2023-05-29T05:38:19;102067.28;;;14.66;100.00
13015;BME280;6573;57.696;11.950;2023-05-29T05:40:47;102069.91;;;14.43;100.00
13015;BME280;6573;57.696;11.950;2023-05-29T05:43:15;102074.34;;;14.58;100.00
13015;BME280;6573;57.696;11.950;2023-05-29T05:45:45;102065.50;;;14.50;100.00
13015;BME280;6573;57.696;11.950;2023-05-29T05:48:13;102061.97;;;14.57;100.00
13015;BME280;6573;57.696;11.950;2023-05-29T05:50:41;102074.34;;;14.73;100.00
13015;BME280;6573;57.696;11.950;2023-05-29T05:53:11;102070.78;;;14.74;100.00
13015;BME280;6573;57.696;11.950;2023-05-29T05:55:39;102070.81;;;14.95;100.00
13015;BME280;6573;57.696;11.950;2023-05-29T05:58:08;102071.69;;;14.79;100.00
13015;BME280;6573;57.696;11.950;2023-05-29T06:00:37;102079.63;;;14.91;100.00
13015;BME280;6573;57.696;11.950;2023-05-29T06:03:07;102080.53;;;14.98;100.00
13015;BME280;6573;57.696;11.950;2023-05-29T06:05:38;102081.41;;;14.95;100.00
13015;BME280;6573;57.696;11.950;2023-05-29T06:08:07;102098.19;;;14.96;100.00
13015;BME280;6573;57.696;11.950;2023-05-29T06:10:36;102095.53;;;14.94;100.00
13015;BME280;6573;57.696;11.950;2023-05-29T06:13:04;102097.28;;;15.19;100.00
13015;BME280;6573;57.696;11.950;2023-05-29T06:15:33;102095.50;;;15.18;100.00
13015;BME280;6573;57.696;11.950;2023-05-29T06:18:03;102092.84;;;15.26;100.00
13015;BME280;6573;57.696;11.950;2023-05-29T06:20:34;102090.16;;;15.51;100.00
13015;BME280;6573;57.696;11.950;2023-05-29T06:23:02;102090.16;;;15.54;100.00
13015;BME280;6573;57.696;11.950;2023-05-29T06:25:31;102087.53;;;15.47;100.00
13015;BME280;6573;57.696;11.950;2023-05-29T06:28:00;102091.94;;;15.46;100.00
13015;BME280;6573;57.696;11.950;2023-05-29T06:30:28;102095.47;;;15.56;100.00
13015;BME280;6573;57.696;11.950;2023-05-29T06:32:57;102093.66;;;15.78;100.00
13015;BME280;6573;57.696;11.950;2023-05-29T06:35:26;102090.09;;;15.76;100.00
13015;BME280;6573;57.696;11.950;2023-05-29T06:37:56;102096.31;;;15.72;100.00
13015;BME280;6573;57.696;11.950;2023-05-29T06:40:27;102094.53;;;15.66;100.00
13015;BME280;6573;57.696;11.950;2023-05-29T06:42:56;102090.00;;;15.97;100.00
13015;BME280;6573;57.696;11.950;2023-05-29T06:45:24;102096.13;;;16.12;100.00
13015;BME280;6573;57.696;11.950;2023-05-29T06:47:52;102095.13;;;16.33;100.00
13015;BME280;6573;57.696;11.950;2023-05-29T06:50:22;102086.25;;;16.34;100.00
13015;BME280;6573;57.696;11.950;2023-05-29T06:52:50;102100.41;;;16.39;100.00
13015;BME280;6573;57.696;11.950;2023-05-29T06:55:20;102101.28;;;16.38;100.00
13015;BME280;6573;57.696;11.950;2023-05-29T06:57:49;102112.75;;;16.43;100.00
13015;BME280;6573;57.696;11.950;2023-05-29T07:00:17;102105.63;;;16.51;100.00
13015;BME280;6573;57.696;11.950;2023-05-29T07:02:46;102109.09;;;16.68;100.00
13015;BME280;6573;57.696;11.950;2023-05-29T07:05:15;102110.78;;;16.78;100.00
13015;BME280;6573;57.696;11.950;2023-05-29T07:07:43;102107.13;;;16.92;100.00
13015;BME280;6573;57.696;11.950;2023-05-29T07:10:11;102094.81;;;16.81;100.00
13015;BME280;6573;57.696;11.950;2023-05-29T07:12:41;102112.47;;;16.89;100.00
13015;BME280;6573;57.696;11.950;2023-05-29T07:15:10;102117.91;;;16.73;100.00
13015;BME280;6573;57.696;11.950;2023-05-29T07:17:38;102111.56;;;16.90;100.00
13015;BME280;6573;57.696;11.950;2023-05-29T07:20:07;102109.72;;;16.98;100.00
13015;BME280;6573;57.696;11.950;2023-05-29T07:22:36;102108.88;;;16.96;100.00
13015;BME280;6573;57.696;11.950;2023-05-29T07:25:04;102121.34;;;16.88;100.00
13015;BME280;6573;57.696;11.950;2023-05-29T07:27:34;102118.56;;;17.04;100.00
13015;BME280;6573;57.696;11.950;2023-05-29T07:30:04;102124.72;;;17.08;100.00
13015;BME280;6573;57.696;11.950;2023-05-29T07:32:33;102122.97;;;17.04;100.00
13015;BME280;6573;57.696;11.950;2023-05-29T07:35:02;102122.84;;;17.19;100.00
13015;BME280;6573;57.696;11.950;2023-05-29T07:37:30;102116.50;;;18.13;100.00
13015;BME280;6573;57.696;11.950;2023-05-29T07:39:58;102111.56;;;19.04;100.00
13015;BME280;6573;57.696;11.950;2023-05-29T07:42:27;102103.13;;;19.30;100.00
13015;BME280;6573;57.696;11.950;2023-05-29T07:44:55;102106.47;;;19.87;100.00
13015;BME280;6573;57.696;11.950;2023-05-29T07:47:25;102097.09;;;20.09;100.00
13015;BME280;6573;57.696;11.950;2023-05-29T07:49:53;102099.88;;;20.44;100.00
13015;BME280;6573;57.696;11.950;2023-05-29T07:52:22;102103.44;;;21.51;100.00
13015;BME280;6573;57.696;11.950;2023-05-29T07:54:50;102092.75;;;21.17;98.37
13015;BME280;6573;57.696;11.950;2023-05-29T07:57:19;102102.72;;;21.44;97.50
13015;BME280;6573;57.696;11.950;2023-05-29T07:59:48;102103.72;;;21.72;95.08
13015;BME280;6573;57.696;11.950;2023-05-29T08:02:16;102099.84;;;21.82;90.13
13015;BME280;6573;57.696;11.950;2023-05-29T08:04:46;102092.22;;;22.00;88.71
13015;BME280;6573;57.696;11.950;2023-05-29T08:07:15;102093.44;;;22.46;85.71
13015;BME280;6573;57.696;11.950;2023-05-29T08:09:43;102095.19;;;22.20;84.91
13015;BME280;6573;57.696;11.950;2023-05-29T08:12:12;102092.59;;;21.87;83.05
13015;BME280;6573;57.696;11.950;2023-05-29T08:14:40;102094.31;;;21.58;82.68
13015;BME280;6573;57.696;11.950;2023-05-29T08:17:08;102086.22;;;21.59;83.57
13015;BME280;6573;57.696;11.950;2023-05-29T08:19:37;102079.13;;;21.58;82.89
13015;BME280;6573;57.696;11.950;2023-05-29T08:22:06;102067.94;;;21.73;83.34
13015;BME280;6573;57.696;11.950;2023-05-29T08:24:34;102081.28;;;21.44;84.62
13015;BME280;6573;57.696;11.950;2023-05-29T08:27:03;102089.50;;;21.06;86.64
13015;BME280;6573;57.696;11.950;2023-05-29T08:29:32;102091.66;;;20.53;88.55
13015;BME280;6573;57.696;11.950;2023-05-29T08:32:00;102090.53;;;20.22;90.41
13015;BME280;6573;57.696;11.950;2023-05-29T08:34:30;102086.22;;;20.92;89.82
13015;BME280;6573;57.696;11.950;2023-05-29T08:36:58;102086.09;;;20.98;90.04
13015;BME280;6573;57.696;11.950;2023-05-29T08:39:28;102085.06;;;20.66;90.11
13015;BME280;6573;57.696;11.950;2023-05-29T08:42:01;102083.69;;;20.50;89.16
13015;BME280;6573;57.696;11.950;2023-05-29T08:44:35;102084.41;;;20.57;89.25
13015;BME280;6573;57.696;11.950;2023-05-29T08:47:07;102088.06;;;20.90;89.67
13015;BME280;6573;57.696;11.950;2023-05-29T08:49:41;102093.97;;;20.69;90.62
13015;BME280;6573;57.696;11.950;2023-05-29T08:52:15;102088.50;;;20.36;91.69
13015;BME280;6573;57.696;11.950;2023-05-29T08:54:46;102094.25;;;20.56;91.53
13015;BME280;6573;57.696;11.950;2023-05-29T08:57:15;102088.53;;;21.08;90.53
13015;BME280;6573;57.696;11.950;2023-05-29T08:59:44;102096.94;;;21.59;89.48
13015;BME280;6573;57.696;11.950;2023-05-29T09:02:13;102092.47;;;21.27;88.48
13015;BME280;6573;57.696;11.950;2023-05-29T09:04:42;102096.78;;;20.98;87.90
13015;BME280;6573;57.696;11.950;2023-05-29T09:07:11;102090.13;;;20.43;90.56
13015;BME280;6573;57.696;11.950;2023-05-29T09:09:41;102100.28;;;20.64;91.65
13015;BME280;6573;57.696;11.950;2023-05-29T09:12:10;102110.84;;;20.32;91.78
13015;BME280;6573;57.696;11.950;2023-05-29T09:14:40;102117.81;;;19.98;92.36
13015;BME280;6573;57.696;11.950;2023-05-29T09:17:10;102108.88;;;19.99;93.13
13015;BME280;6573;57.696;11.950;2023-05-29T09:19:40;102116.59;;;20.14;91.03
13015;BME280;6573;57.696;11.950;2023-05-29T09:22:11;102123.81;;;20.09;93.23
13015;BME280;6573;57.696;11.950;2023-05-29T09:24:43;102122.94;;;20.07;96.96
13015;BME280;6573;57.696;11.950;2023-05-29T09:27:15;102131.81;;;19.66;98.80
13015;BME280;6573;57.696;11.950;2023-05-29T09:29:45;102128.19;;;19.69;98.28
13015;BME280;6573;57.696;11.950;2023-05-29T09:32:16;102118.53;;;20.06;93.54
13015;BME280;6573;57.696;11.950;2023-05-29T09:34:45;102122.25;;;19.99;88.30
13015;BME280;6573;57.696;11.950;2023-05-29T09:37:13;102121.84;;;20.17;85.17
13015;BME280;6573;57.696;11.950;2023-05-29T09:39:45;102114.00;;;20.49;85.76
13015;BME280;6573;57.696;11.950;2023-05-29T09:42:16;102113.88;;;20.55;83.58
13015;BME280;6573;57.696;11.950;2023-05-29T09:44:49;102118.69;;;20.41;82.11
13015;BME280;6573;57.696;11.950;2023-05-29T09:47:20;102123.44;;;19.84;80.97
13015;BME280;6573;57.696;11.950;2023-05-29T09:49:49;102131.53;;;19.80;83.77
13015;BME280;6573;57.696;11.950;2023-05-29T09:52:21;102130.47;;;19.43;87.63
13015;BME280;6573;57.696;11.950;2023-05-29T09:54:50;102131.91;;;19.62;88.47
13015;BME280;6573;57.696;11.950;2023-05-29T09:57:21;102138.94;;;19.66;86.01
13015;BME280;6573;57.696;11.950;2023-05-29T09:59:52;102139.13;;;19.57;85.51
13015;BME280;6573;57.696;11.950;2023-05-29T10:02:20;102136.72;;;19.42;86.53
13015;BME280;6573;57.696;11.950;2023-05-29T10:04:49;102125.03;;;19.49;86.04
13015;BME280;6573;57.696;11.950;2023-05-29T10:07:24;102126.56;;;19.62;86.69
13015;BME280;6573;57.696;11.950;2023-05-29T10:09:59;102113.81;;;19.76;86.12
13015;BME280;6573;57.696;11.950;2023-05-29T10:12:31;102114.34;;;19.94;86.05
13015;BME280;6573;57.696;11.950;2023-05-29T10:15:06;102121.50;;;19.91;86.59
13015;BME280;6573;57.696;11.950;2023-05-29T10:17:36;102125.75;;;20.01;86.65
13015;BME280;6573;57.696;11.950;2023-05-29T10:20:09;102110.34;;;20.14;85.27
13015;BME280;6573;57.696;11.950;2023-05-29T10:22:51;102112.97;;;20.17;85.53
13015;BME280;6573;57.696;11.950;2023-05-29T10:25:23;102118.84;;;20.34;85.35
13015;BME280;6573;57.696;11.950;2023-05-29T10:27:54;102107.50;;;20.24;81.17
13015;BME280;6573;57.696;11.950;2023-05-29T10:30:28;102103.41;;;20.46;81.59
13015;BME280;6573;57.696;11.950;2023-05-29T10:33:13;102112.28;;;20.48;80.28
13015;BME280;6573;57.696;11.950;2023-05-29T10:35:47;102115.53;;;20.23;81.65
13015;BME280;6573;57.696;11.950;2023-05-29T10:38:17;102098.13;;;20.43;82.03
13015;BME280;6573;57.696;11.950;2023-05-29T10:40:47;102108.16;;;20.32;80.82
13015;BME280;6573;57.696;11.950;2023-05-29T10:43:34;102098.06;;;20.46;77.79
13015;BME280;6573;57.696;11.950;2023-05-29T10:46:04;102108.53;;;20.55;78.91
13015;BME280;6573;57.696;11.950;2023-05-29T10:48:40;102104.91;;;20.18;80.73
13015;BME280;6573;57.696;11.950;2023-05-29T10:51:11;102105.66;;;20.26;82.12
13015;BME280;6573;57.696;11.950;2023-05-29T10:53:51;102104.38;;;20.42;80.05
13015;BME280;6573;57.696;11.950;2023-05-29T10:56:22;102109.00;;;20.34;79.41
13015;BME280;6573;57.696;11.950;2023-05-29T10:58:58;102115.50;;;20.62;81.32
13015;BME280;6573;57.696;11.950;2023-05-29T11:01:28;102108.88;;;20.40;82.36
13015;BME280;6573;57.696;11.950;2023-05-29T11:04:28;102108.94;;;20.37;82.02
13015;BME280;6573;57.696;11.950;2023-05-29T11:06:59;102100.09;;;20.35;81.85
13015;BME280;6573;57.696;11.950;2023-05-29T11:09:32;102106.22;;;19.99;83.09
13015;BME280;6573;57.696;11.950;2023-05-29T11:12:16;102097.38;;;19.97;84.74
13015;BME280;6573;57.696;11.950;2023-05-29T11:15:02;102106.66;;;19.78;86.35
13015;BME280;6573;57.696;11.950;2023-05-29T11:17:32;102117.47;;;19.72;87.37
13015;BME280;6573;57.696;11.950;2023-05-29T11:20:02;102106.94;;;19.63;88.15
13015;BME280;6573;57.696;11.950;2023-05-29T11:22:51;102118.16;;;19.81;88.59
13015;BME280;6573;57.696;11.950;2023-05-29T11:25:22;102113.69;;;19.82;88.46
13015;BME280;6573;57.696;11.950;2023-05-29T11:27:50;102099.56;;;19.77;89.23
13015;BME280;6573;57.696;11.950;2023-05-29T11:30:21;102101.19;;;19.84;89.20
13015;BME280;6573;57.696;11.950;2023-05-29T11:32:52;102117.38;;;19.75;89.17
13015;BME280;6573;57.696;11.950;2023-05-29T11:35:22;102119.09;;;19.79;88.81
13015;BME280;6573;57.696;11.950;2023-05-29T11:37:50;102111.69;;;19.93;88.84
13015;BME280;6573;57.696;11.950;2023-05-29T11:40:18;102118.59;;;20.03;88.98
13015;BME280;6573;57.696;11.950;2023-05-29T11:42:47;102116.66;;;20.11;90.21
13015;BME280;6573;57.696;11.950;2023-05-29T11:45:17;102109.94;;;19.92;91.28
13015;BME280;6573;57.696;11.950;2023-05-29T11:47:56;102123.59;;;19.29;93.79
13015;BME280;6573;57.696;11.950;2023-05-29T11:50:27;102122.91;;;19.66;93.90
13015;BME280;6573;57.696;11.950;2023-05-29T11:52:56;102113.81;;;19.76;93.70
13015;BME280;6573;57.696;11.950;2023-05-29T11:55:26;102111.25;;;20.14;92.42
13015;BME280;6573;57.696;11.950;2023-05-29T11:58:02;102120.78;;;19.83;92.24
13015;BME280;6573;57.696;11.950;2023-05-29T12:00:31;102142.41;;;19.71;91.31
13015;BME280;6573;57.696;11.950;2023-05-29T12:03:02;102142.44;;;19.68;92.40
13015;BME280;6573;57.696;11.950;2023-05-29T12:05:32;102131.22;;;19.95;91.73
13015;BME280;6573;57.696;11.950;2023-05-29T12:08:01;102120.00;;;19.79;92.10
13015;BME280;6573;57.696;11.950;2023-05-29T12:10:31;102123.84;;;19.14;92.34
13015;BME280;6573;57.696;11.950;2023-05-29T12:13:00;102121.50;;;19.47;92.22
13015;BME280;6573;57.696;11.950;2023-05-29T12:15:28;102137.06;;;19.71;92.41
13015;BME280;6573;57.696;11.950;2023-05-29T12:18:01;102130.59;;;19.36;93.12
13015;BME280;6573;57.696;11.950;2023-05-29T12:20:30;102127.75;;;19.46;92.89
13015;BME280;6573;57.696;11.950;2023-05-29T12:23:00;102130.31;;;19.52;93.07
13015;BME280;6573;57.696;11.950;2023-05-29T12:25:29;102136.16;;;19.21;94.11
13015;BME280;6573;57.696;11.950;2023-05-29T12:27:57;102126.25;;;19.28;93.78
13015;BME280;6573;57.696;11.950;2023-05-29T12:30:36;102143.38;;;19.16;93.87
13015;BME280;6573;57.696;11.950;2023-05-29T12:33:10;102145.63;;;18.87;96.00
13015;BME280;6573;57.696;11.950;2023-05-29T12:35:53;102148.44;;;19.31;96.17
13015;BME280;6573;57.696;11.950;2023-05-29T12:38:22;102141.50;;;19.21;95.74
13015;BME280;6573;57.696;11.950;2023-05-29T12:40:53;102121.81;;;19.28;92.66
13015;BME280;6573;57.696;11.950;2023-05-29T12:43:22;102111.88;;;19.38;94.81
13015;BME280;6573;57.696;11.950;2023-05-29T12:45:54;102126.25;;;19.29;96.22
13015;BME280;6573;57.696;11.950;2023-05-29T12:48:27;102116.38;;;19.34;96.02
13015;BME280;6573;57.696;11.950;2023-05-29T12:50:56;102113.59;;;19.41;95.96
13015;BME280;6573;57.696;11.950;2023-05-29T12:53:28;102112.03;;;19.29;95.12
13015;BME280;6573;57.696;11.950;2023-05-29T12:55:57;102124.03;;;19.54;94.88
13015;BME280;6573;57.696;11.950;2023-05-29T12:58:28;102123.16;;;19.54;94.68